Time,TemperatureF,DewpointF,PressureIn,WindDirection,WindDirectionDegrees,WindSpeedMPH,WindSpeedGustMPH,Humidity,HourlyPrecipIn,Conditions,Clouds,dailyrainin,SoftwareType,DateUTC
2013-07-07 00:00:00,56.1,52.0,29.91,North,0,2.9,4.7,86,0.00,,---,0.00,VWS V14.01,2013-07-07 07:00:00,
2013-07-07 00:05:00,55.9,51.8,29.91,NNE,22,3.6,4.0,86,0.00,,---,0.00,VWS V14.01,2013-07-07 07:05:00,
2013-07-07 00:10:00,55.9,51.8,29.91,WNW,292,4.0,4.3,86,0.00,,---,0.00,VWS V14.01,2013-07-07 07:10:00,
2013-07-07 00:15:00,55.9,51.8,29.91,NNW,338,4.7,6.3,86,0.00,,---,0.00,VWS V14.01,2013-07-07 07:15:00,
2013-07-07 00:20:00,55.9,52.1,29.91,NNW,338,2.9,6.3,87,0.00,,---,0.00,VWS V14.01,2013-07-07 07:20:00,
2013-07-07 00:25:00,55.9,52.1,29.91,NNW,338,2.9,6.5,87,0.00,,---,0.00,VWS V14.01,2013-07-07 07:25:00,
2013-07-07 00:30:00,55.9,52.1,29.91,NW,315,2.5,2.5,87,0.00,,---,0.00,VWS V14.01,2013-07-07 07:30:00,
2013-07-07 00:35:00,55.8,52.0,29.91,NNW,338,3.4,4.3,87,0.00,,---,0.00,VWS V14.01,2013-07-07 07:35:00,
2013-07-07 00:40:00,55.8,52.0,29.91,WNW,292,3.4,4.7,87,0.00,,---,0.00,VWS V14.01,2013-07-07 07:40:00,
2013-07-07 00:41:00,55.8,52.0,29.91,WNW,292,2.7,4.0,87,0.00,,---,0.00,VWS V14.01,2013-07-07 07:41:00,
2013-07-07 00:46:00,55.8,52.3,29.91,NNW,338,3.4,6.0,88,0.00,,---,0.00,VWS V14.01,2013-07-07 07:46:00,
2013-07-07 00:50:00,55.8,52.3,29.91,WNW,292,3.1,6.0,88,0.00,,---,0.00,VWS V14.01,2013-07-07 07:50:00,
2013-07-07 00:51:00,55.8,52.3,29.91,WNW,292,3.4,3.4,88,0.00,,---,0.00,VWS V14.01,2013-07-07 07:51:00,
2013-07-07 00:56:00,55.6,52.1,29.91,WNW,292,4.3,5.6,88,0.00,,---,0.00,VWS V14.01,2013-07-07 07:56:00,
2013-07-07 01:00:00,55.8,52.3,29.91,NNW,338,3.6,5.6,88,0.00,,---,0.00,VWS V14.01,2013-07-07 08:00:00,
2013-07-07 01:02:00,55.8,52.3,29.91,NNE,22,3.8,3.8,88,0.00,,---,0.00,VWS V14.01,2013-07-07 08:02:00,
2013-07-07 01:07:00,55.8,52.3,29.91,WSW,248,6.0,6.0,88,0.00,,---,0.00,VWS V14.01,2013-07-07 08:07:00,
2013-07-07 01:10:00,55.8,52.3,29.91,NNW,338,3.1,6.0,88,0.00,,---,0.00,VWS V14.01,2013-07-07 08:10:00,
2013-07-07 01:12:00,55.8,52.3,29.91,NNW,338,3.4,4.7,88,0.00,,---,0.00,VWS V14.01,2013-07-07 08:12:00,
2013-07-07 01:17:00,55.9,52.4,29.91,NE,45,2.7,4.7,88,0.00,,---,0.00,VWS V14.01,2013-07-07 08:17:00,
2013-07-07 01:20:00,55.9,52.4,29.91,WNW,292,3.4,4.7,88,0.00,,---,0.00,VWS V14.01,2013-07-07 08:20:00,
2013-07-07 01:22:00,55.9,52.4,29.91,WNW,292,4.7,4.7,88,0.00,,---,0.00,VWS V14.01,2013-07-07 08:22:00,
2013-07-07 01:27:00,55.9,52.4,29.91,WNW,292,1.6,4.7,88,0.00,,---,0.00,VWS V14.01,2013-07-07 08:27:00,
2013-07-07 01:30:00,55.9,52.4,29.91,NW,315,2.9,4.7,88,0.00,,---,0.00,VWS V14.01,2013-07-07 08:30:00,
2013-07-07 01:32:00,55.9,52.4,29.91,WNW,292,3.6,3.6,88,0.00,,---,0.00,VWS V14.01,2013-07-07 08:32:00,
2013-07-07 01:37:00,55.9,52.8,29.91,WNW,292,1.6,4.3,89,0.00,,---,0.00,VWS V14.01,2013-07-07 08:37:00,
2013-07-07 01:40:00,55.9,52.8,29.91,WNW,292,2.7,4.3,89,0.00,,---,0.00,VWS V14.01,2013-07-07 08:40:00,
2013-07-07 01:42:00,55.9,52.8,29.91,NNW,338,2.5,2.9,89,0.00,,---,0.00,VWS V14.01,2013-07-07 08:42:00,
2013-07-07 01:47:00,55.9,52.4,29.91,WNW,292,4.0,5.8,88,0.00,,---,0.00,VWS V14.01,2013-07-07 08:47:00,
2013-07-07 01:50:00,55.9,52.4,29.91,NNW,338,6.5,6.5,88,0.00,,---,0.00,VWS V14.01,2013-07-07 08:50:00,
2013-07-07 01:53:00,55.9,52.8,29.91,NNW,338,2.0,6.5,89,0.00,,---,0.00,VWS V14.01,2013-07-07 08:53:00,
2013-07-07 01:58:00,55.9,52.4,29.91,NNW,338,3.6,6.5,88,0.00,,---,0.00,VWS V14.01,2013-07-07 08:58:00,
2013-07-07 02:00:00,55.9,52.4,29.91,WNW,292,3.1,6.5,88,0.00,,---,0.00,VWS V14.01,2013-07-07 09:00:00,
2013-07-07 02:03:00,55.9,52.4,29.91,WNW,292,2.5,4.9,88,0.00,,---,0.00,VWS V14.01,2013-07-07 09:03:00,
2013-07-07 02:08:00,55.9,52.4,29.91,NNW,338,4.9,4.9,88,0.00,,---,0.00,VWS V14.01,2013-07-07 09:08:00,
2013-07-07 02:10:00,55.9,52.4,29.91,WNW,292,2.9,4.9,88,0.00,,---,0.00,VWS V14.01,2013-07-07 09:10:00,
2013-07-07 02:13:00,55.9,52.4,29.91,WNW,292,2.7,3.8,88,0.00,,---,0.00,VWS V14.01,2013-07-07 09:13:00,
2013-07-07 02:18:00,55.9,52.4,29.91,WNW,292,3.4,3.8,88,0.00,,---,0.00,VWS V14.01,2013-07-07 09:18:00,
2013-07-07 02:20:00,55.9,52.4,29.91,NNW,338,3.8,3.8,88,0.00,,---,0.00,VWS V14.01,2013-07-07 09:20:00,
2013-07-07 02:23:00,55.8,52.3,29.91,WNW,292,3.8,3.8,88,0.00,,---,0.00,VWS V14.01,2013-07-07 09:23:00,
2013-07-07 02:28:00,55.8,52.3,29.91,NNW,338,2.7,4.0,88,0.00,,---,0.00,VWS V14.01,2013-07-07 09:28:00,
2013-07-07 02:30:00,55.8,52.3,29.91,NNW,338,3.6,5.8,88,0.00,,---,0.00,VWS V14.01,2013-07-07 09:30:00,
2013-07-07 02:33:00,55.8,52.3,29.91,NW,315,2.5,3.6,88,0.00,,---,0.00,VWS V14.01,2013-07-07 09:33:00,
2013-07-07 02:38:00,55.8,52.3,29.91,WNW,292,2.9,3.6,88,0.00,,---,0.00,VWS V14.01,2013-07-07 09:38:00,
2013-07-07 02:40:00,55.8,52.3,29.91,NW,315,2.5,3.6,88,0.00,,---,0.00,VWS V14.01,2013-07-07 09:40:00,
2013-07-07 02:44:00,55.6,52.1,29.91,NNW,338,1.6,3.4,88,0.00,,---,0.00,VWS V14.01,2013-07-07 09:44:00,
2013-07-07 02:49:00,55.6,52.1,29.91,NNW,338,2.7,4.0,88,0.00,,---,0.00,VWS V14.01,2013-07-07 09:49:00,
2013-07-07 02:50:00,55.6,52.1,29.91,WNW,292,3.8,4.0,88,0.00,,---,0.00,VWS V14.01,2013-07-07 09:50:00,
2013-07-07 02:54:00,55.6,52.1,29.91,NNW,338,2.7,4.0,88,0.00,,---,0.00,VWS V14.01,2013-07-07 09:54:00,
2013-07-07 02:59:00,55.6,52.1,29.91,NNW,338,3.4,4.0,88,0.00,,---,0.00,VWS V14.01,2013-07-07 09:59:00,
2013-07-07 03:00:00,55.6,52.1,29.91,NW,315,2.9,4.0,88,0.00,,---,0.00,VWS V14.01,2013-07-07 10:00:00,
2013-07-07 03:04:00,55.6,52.1,29.91,NNW,338,1.6,4.7,88,0.00,,---,0.00,VWS V14.01,2013-07-07 10:04:00,
2013-07-07 03:09:00,55.6,52.1,29.91,NW,315,3.1,4.7,88,0.00,,---,0.00,VWS V14.01,2013-07-07 10:09:00,
2013-07-07 03:10:00,55.6,52.1,29.91,NNE,22,2.9,4.7,88,0.00,,---,0.00,VWS V14.01,2013-07-07 10:10:00,
2013-07-07 03:14:00,55.6,52.1,29.91,WNW,292,2.9,4.7,88,0.00,,---,0.00,VWS V14.01,2013-07-07 10:14:00,
2013-07-07 03:19:00,55.8,52.3,29.91,NNW,338,2.2,4.7,88,0.00,,---,0.00,VWS V14.01,2013-07-07 10:19:00,
2013-07-07 03:20:00,55.8,52.3,29.91,WNW,292,4.0,4.7,88,0.00,,---,0.00,VWS V14.01,2013-07-07 10:20:00,
2013-07-07 03:24:00,55.8,52.3,29.91,NW,315,3.1,4.0,88,0.00,,---,0.00,VWS V14.01,2013-07-07 10:24:00,
2013-07-07 03:29:00,55.6,52.1,29.91,NNW,338,3.1,4.0,88,0.00,,---,0.00,VWS V14.01,2013-07-07 10:29:00,
2013-07-07 03:30:00,55.6,52.1,29.91,WNW,292,3.1,4.0,88,0.00,,---,0.00,VWS V14.01,2013-07-07 10:30:00,
2013-07-07 03:35:00,55.8,52.3,29.91,NW,315,2.9,5.4,88,0.00,,---,0.00,VWS V14.01,2013-07-07 10:35:00,
2013-07-07 03:40:00,55.8,52.3,29.91,WNW,292,2.9,5.4,88,0.00,,---,0.00,VWS V14.01,2013-07-07 10:40:00,
2013-07-07 03:45:00,55.6,52.1,29.91,NNW,338,3.1,4.0,88,0.00,,---,0.00,VWS V14.01,2013-07-07 10:45:00,
2013-07-07 03:50:00,55.6,52.1,29.91,NNW,338,4.0,4.0,88,0.00,,---,0.00,VWS V14.01,2013-07-07 10:50:00,
2013-07-07 03:55:00,55.6,52.1,29.91,NNW,338,2.0,4.0,88,0.00,,---,0.00,VWS V14.01,2013-07-07 10:55:00,
2013-07-07 04:00:00,55.6,52.1,29.91,NNW,338,3.4,3.4,88,0.00,,---,0.00,VWS V14.01,2013-07-07 11:00:00,
2013-07-07 04:05:00,55.6,52.1,29.91,WNW,292,3.4,4.3,88,0.00,,---,0.00,VWS V14.01,2013-07-07 11:05:00,
2013-07-07 04:10:00,55.4,51.9,29.91,NW,315,4.0,4.0,88,0.00,,---,0.00,VWS V14.01,2013-07-07 11:10:00,
2013-07-07 04:15:00,55.4,51.9,29.91,WNW,292,2.5,4.9,88,0.00,,---,0.00,VWS V14.01,2013-07-07 11:15:00,
2013-07-07 04:21:00,55.4,51.9,29.91,WNW,292,2.5,2.5,88,0.00,,---,0.00,VWS V14.01,2013-07-07 11:21:00,
2013-07-07 04:26:00,55.2,51.7,29.91,NNW,338,3.4,4.7,88,0.00,,---,0.00,VWS V14.01,2013-07-07 11:26:00,
2013-07-07 04:30:00,55.2,51.7,29.91,NW,315,4.9,4.9,88,0.00,,---,0.00,VWS V14.01,2013-07-07 11:30:00,
2013-07-07 04:31:00,55.2,51.7,29.91,NW,315,4.9,4.9,88,0.00,,---,0.00,VWS V14.01,2013-07-07 11:31:00,
2013-07-07 04:36:00,55.2,51.7,29.91,NNW,338,3.4,4.9,88,0.00,,---,0.00,VWS V14.01,2013-07-07 11:36:00,
2013-07-07 04:40:00,55.2,52.0,29.91,NNW,338,2.0,4.9,89,0.00,,---,0.00,VWS V14.01,2013-07-07 11:40:00,
2013-07-07 04:41:00,55.2,52.0,29.91,NNW,338,2.7,2.7,89,0.00,,---,0.00,VWS V14.01,2013-07-07 11:41:00,
2013-07-07 04:46:00,55.4,51.9,29.91,NNW,338,4.0,5.6,88,0.00,,---,0.00,VWS V14.01,2013-07-07 11:46:00,
2013-07-07 04:50:00,55.4,51.9,29.91,NNW,338,4.3,5.6,88,0.00,,---,0.00,VWS V14.01,2013-07-07 11:50:00,
2013-07-07 04:51:00,55.4,51.9,29.91,NNW,338,4.9,4.9,88,0.00,,---,0.00,VWS V14.01,2013-07-07 11:51:00,
2013-07-07 04:56:00,55.4,52.2,29.91,North,0,3.1,6.7,89,0.00,,---,0.00,VWS V14.01,2013-07-07 11:56:00,
2013-07-07 05:00:00,55.4,52.2,29.91,NNW,338,3.1,6.7,89,0.00,,---,0.00,VWS V14.01,2013-07-07 12:00:00,
2013-07-07 05:01:00,55.4,52.2,29.91,NNW,338,4.9,4.9,89,0.00,,---,0.00,VWS V14.01,2013-07-07 12:01:00,
2013-07-07 05:06:00,55.2,52.0,29.91,NW,315,5.4,5.6,89,0.00,,---,0.00,VWS V14.01,2013-07-07 12:06:00,
2013-07-07 05:10:00,55.2,52.0,29.91,NW,315,2.0,5.6,89,0.00,,---,0.00,VWS V14.01,2013-07-07 12:10:00,
2013-07-07 05:11:00,55.2,52.0,29.91,NW,315,2.9,2.9,89,0.00,,---,0.00,VWS V14.01,2013-07-07 12:11:00,
2013-07-07 05:17:00,55.2,52.0,29.91,WNW,292,1.3,3.6,89,0.00,,---,0.00,VWS V14.01,2013-07-07 12:17:00,
2013-07-07 05:22:00,55.0,51.9,29.91,NNW,338,3.8,8.1,89,0.00,,---,0.00,VWS V14.01,2013-07-07 12:22:00,
2013-07-07 05:27:00,55.0,51.9,29.91,ENE,68,3.6,8.1,89,0.00,,---,0.00,VWS V14.01,2013-07-07 12:27:00,
2013-07-07 05:30:00,55.0,51.9,29.91,WNW,292,3.1,8.1,89,0.00,,---,0.00,VWS V14.01,2013-07-07 12:30:00,
2013-07-07 05:32:00,55.0,51.9,29.91,NNW,338,2.9,3.1,89,0.00,,---,0.00,VWS V14.01,2013-07-07 12:32:00,
2013-07-07 05:37:00,55.0,51.9,29.91,WNW,292,4.9,5.4,89,0.00,,---,0.00,VWS V14.01,2013-07-07 12:37:00,
2013-07-07 05:40:00,55.0,52.2,29.91,NW,315,4.0,5.4,90,0.00,,---,0.00,VWS V14.01,2013-07-07 12:40:00,
2013-07-07 05:42:00,55.0,52.2,29.91,NW,315,2.5,4.0,90,0.00,,---,0.00,VWS V14.01,2013-07-07 12:42:00,
2013-07-07 05:47:00,55.0,52.2,29.91,NW,315,2.9,4.0,90,0.00,,---,0.00,VWS V14.01,2013-07-07 12:47:00,
2013-07-07 05:50:00,55.0,52.2,29.91,NNW,338,2.5,4.0,90,0.00,,---,0.00,VWS V14.01,2013-07-07 12:50:00,
2013-07-07 05:52:00,55.0,52.2,29.91,WNW,292,3.4,3.8,90,0.00,,---,0.00,VWS V14.01,2013-07-07 12:52:00,
2013-07-07 05:57:00,54.9,52.0,29.91,WNW,292,2.0,4.3,90,0.00,,---,0.00,VWS V14.01,2013-07-07 12:57:00,
2013-07-07 06:00:00,54.9,52.0,29.91,North,0,2.0,4.3,90,0.00,,---,0.00,VWS V14.01,2013-07-07 13:00:00,
2013-07-07 06:02:00,54.9,52.0,29.91,WNW,292,3.8,3.8,90,0.00,,---,0.00,VWS V14.01,2013-07-07 13:02:00,
2013-07-07 06:08:00,54.9,52.0,29.91,NNW,338,3.8,4.7,90,0.00,,---,0.00,VWS V14.01,2013-07-07 13:08:00,
2013-07-07 06:10:00,54.9,52.0,29.91,NNW,338,5.8,5.8,90,0.00,,---,0.00,VWS V14.01,2013-07-07 13:10:00,
2013-07-07 06:13:00,54.7,51.8,29.91,WNW,292,2.9,5.8,90,0.00,,---,0.00,VWS V14.01,2013-07-07 13:13:00,
2013-07-07 06:18:00,54.7,51.8,29.91,NNW,338,3.4,5.8,90,0.00,,---,0.00,VWS V14.01,2013-07-07 13:18:00,
2013-07-07 06:20:00,54.7,51.8,29.91,NNW,338,2.5,5.8,90,0.00,,---,0.00,VWS V14.01,2013-07-07 13:20:00,
2013-07-07 06:23:00,54.7,51.8,29.91,WNW,292,2.9,4.0,90,0.00,,---,0.00,VWS V14.01,2013-07-07 13:23:00,
2013-07-07 06:28:00,54.7,51.8,29.91,NNW,338,5.6,5.6,90,0.00,,---,0.00,VWS V14.01,2013-07-07 13:28:00,
2013-07-07 06:30:00,54.7,51.8,29.91,WNW,292,1.3,5.6,90,0.00,,---,0.00,VWS V14.01,2013-07-07 13:30:00,
2013-07-07 06:33:00,54.5,51.6,29.91,NNW,338,5.6,5.6,90,0.00,,---,0.00,VWS V14.01,2013-07-07 13:33:00,
2013-07-07 06:38:00,54.5,51.6,29.91,WNW,292,2.5,5.6,90,0.00,,---,0.00,VWS V14.01,2013-07-07 13:38:00,
2013-07-07 06:40:00,54.5,51.6,29.91,NNW,338,0.9,5.6,90,0.00,,---,0.00,VWS V14.01,2013-07-07 13:40:00,
2013-07-07 06:43:00,54.7,52.1,29.91,NW,315,2.2,3.1,91,0.00,,---,0.00,VWS V14.01,2013-07-07 13:43:00,
2013-07-07 06:48:00,54.9,52.3,29.91,NNE,22,1.6,3.1,91,0.00,,---,0.00,VWS V14.01,2013-07-07 13:48:00,
2013-07-07 06:50:00,54.9,52.3,29.91,NNW,338,4.3,4.3,91,0.00,,---,0.00,VWS V14.01,2013-07-07 13:50:00,
2013-07-07 06:54:00,55.0,52.5,29.91,NNW,338,4.0,5.4,91,0.00,,---,0.00,VWS V14.01,2013-07-07 13:54:00,
2013-07-07 06:59:00,55.4,52.8,29.91,WNW,292,4.7,6.0,91,0.00,,---,0.00,VWS V14.01,2013-07-07 13:59:00,
2013-07-07 07:00:00,55.6,53.0,29.91,WNW,292,5.8,6.0,91,0.00,,---,0.00,VWS V14.01,2013-07-07 14:00:00,
2013-07-07 07:04:00,55.6,53.0,29.91,NNW,338,3.6,5.8,91,0.00,,---,0.00,VWS V14.01,2013-07-07 14:04:00,
2013-07-07 07:09:00,55.9,53.4,29.91,NNW,338,2.2,5.8,91,0.00,,---,0.00,VWS V14.01,2013-07-07 14:09:00,
2013-07-07 07:10:00,55.9,53.4,29.91,NNW,338,3.4,5.8,91,0.00,,---,0.00,VWS V14.01,2013-07-07 14:10:00,
2013-07-07 07:14:00,55.9,53.4,29.91,NE,45,3.1,8.1,91,0.00,,---,0.00,VWS V14.01,2013-07-07 14:14:00,
2013-07-07 07:19:00,55.9,53.4,29.91,North,0,3.1,8.1,91,0.00,,---,0.00,VWS V14.01,2013-07-07 14:19:00,
2013-07-07 07:20:00,55.9,53.4,29.91,WSW,248,4.7,8.1,91,0.00,,---,0.00,VWS V14.01,2013-07-07 14:20:00,
2013-07-07 07:24:00,55.9,53.4,29.91,WNW,292,5.8,5.8,91,0.00,,---,0.00,VWS V14.01,2013-07-07 14:24:00,
2013-07-07 07:29:00,56.1,53.2,29.91,NNW,338,5.4,7.6,90,0.00,,---,0.00,VWS V14.01,2013-07-07 14:29:00,
2013-07-07 07:30:00,56.1,53.2,29.91,NNE,22,2.0,7.6,90,0.00,,---,0.00,VWS V14.01,2013-07-07 14:30:00,
2013-07-07 07:34:00,56.1,53.2,29.91,ENE,68,4.3,6.0,90,0.00,,---,0.00,VWS V14.01,2013-07-07 14:34:00,
2013-07-07 07:39:00,56.1,53.2,29.91,NNW,338,6.0,6.0,90,0.00,,---,0.00,VWS V14.01,2013-07-07 14:39:00,
2013-07-07 07:40:00,56.1,53.2,29.91,NNW,338,5.4,6.0,90,0.00,,---,0.00,VWS V14.01,2013-07-07 14:40:00,
2013-07-07 07:45:00,56.1,53.2,29.91,NE,45,2.5,5.4,90,0.00,,---,0.00,VWS V14.01,2013-07-07 14:45:00,
2013-07-07 07:50:00,56.1,52.9,29.91,ESE,112,8.5,8.5,89,0.00,,---,0.00,VWS V14.01,2013-07-07 14:50:00,
2013-07-07 07:55:00,56.5,53.3,29.91,WNW,292,5.8,8.5,89,0.00,,---,0.00,VWS V14.01,2013-07-07 14:55:00,
2013-07-07 08:00:00,57.0,53.8,29.91,WNW,292,2.9,2.9,89,0.00,,---,0.00,VWS V14.01,2013-07-07 15:00:00,
2013-07-07 08:05:00,57.4,53.9,29.91,NNE,22,3.6,4.7,88,0.00,,---,0.00,VWS V14.01,2013-07-07 15:05:00,
2013-07-07 08:10:00,57.7,54.2,29.91,NNE,22,3.6,3.6,88,0.00,,---,0.00,VWS V14.01,2013-07-07 15:10:00,
2013-07-07 08:15:00,57.9,54.4,29.91,North,0,2.7,6.9,88,0.00,,---,0.00,VWS V14.01,2013-07-07 15:15:00,
2013-07-07 08:20:00,57.9,54.1,29.91,NNE,22,5.4,5.4,87,0.00,,---,0.00,VWS V14.01,2013-07-07 15:20:00,
2013-07-07 08:25:00,57.9,53.8,29.91,NNW,338,2.5,6.5,86,0.00,,---,0.00,VWS V14.01,2013-07-07 15:25:00,
2013-07-07 08:30:00,58.1,53.3,29.91,WNW,292,5.4,10.3,84,0.00,,---,0.00,VWS V14.01,2013-07-07 15:30:00,
2013-07-07 08:31:00,58.1,53.3,29.91,WNW,292,5.4,5.4,84,0.00,,---,0.00,VWS V14.01,2013-07-07 15:31:00,
2013-07-07 08:36:00,58.3,53.5,29.91,NNW,338,1.3,6.7,84,0.00,,---,0.00,VWS V14.01,2013-07-07 15:36:00,
2013-07-07 08:40:00,58.3,53.2,29.91,NNW,338,6.5,6.7,83,0.00,,---,0.00,VWS V14.01,2013-07-07 15:40:00,
2013-07-07 08:41:00,58.5,53.3,29.91,NNW,338,4.9,6.5,83,0.00,,---,0.00,VWS V14.01,2013-07-07 15:41:00,
2013-07-07 08:46:00,58.5,53.0,29.91,NNE,22,4.0,6.5,82,0.00,,---,0.00,VWS V14.01,2013-07-07 15:46:00,
2013-07-07 08:50:00,58.3,52.5,29.91,WNW,292,3.4,6.5,81,0.00,,---,0.00,VWS V14.01,2013-07-07 15:50:00,
2013-07-07 08:51:00,58.3,52.5,29.91,East,90,4.7,5.8,81,0.00,,---,0.00,VWS V14.01,2013-07-07 15:51:00,
2013-07-07 08:56:00,58.5,52.3,29.91,WNW,292,4.7,6.5,80,0.00,,---,0.00,VWS V14.01,2013-07-07 15:56:00,
2013-07-07 09:00:00,58.5,52.0,29.91,NNW,338,5.8,8.7,79,0.00,,---,0.00,VWS V14.01,2013-07-07 16:00:00,
2013-07-07 09:01:00,58.5,52.0,29.91,NW,315,5.4,5.8,79,0.00,,---,0.00,VWS V14.01,2013-07-07 16:01:00,
2013-07-07 09:06:00,59.0,52.2,29.91,NW,315,5.8,8.1,78,0.00,,---,0.00,VWS V14.01,2013-07-07 16:06:00,
2013-07-07 09:10:00,59.2,52.3,29.91,WNW,292,7.2,8.1,78,0.00,,---,0.00,VWS V14.01,2013-07-07 16:10:00,
2013-07-07 09:11:00,59.2,52.3,29.91,North,0,5.4,7.2,78,0.00,,---,0.00,VWS V14.01,2013-07-07 16:11:00,
2013-07-07 09:16:00,59.4,52.2,29.91,WNW,292,8.7,8.7,77,0.00,,---,0.00,VWS V14.01,2013-07-07 16:16:00,
2013-07-07 09:20:00,59.4,51.4,29.91,NNW,338,5.8,8.7,75,0.00,,---,0.00,VWS V14.01,2013-07-07 16:20:00,
2013-07-07 09:22:00,59.4,51.5,29.91,North,0,4.7,5.8,75,0.00,,---,0.00,VWS V14.01,2013-07-07 16:22:00,
2013-07-07 09:27:00,59.4,50.7,29.91,West,270,8.7,8.7,73,0.00,,---,0.00,VWS V14.01,2013-07-07 16:27:00,
2013-07-07 09:30:00,59.2,50.5,29.91,WNW,292,8.7,8.7,73,0.00,,---,0.00,VWS V14.01,2013-07-07 16:30:00,
2013-07-07 09:32:00,59.0,50.0,29.91,NNW,338,5.8,8.7,72,0.00,,---,0.00,VWS V14.01,2013-07-07 16:32:00,
2013-07-07 09:37:00,59.4,50.7,29.91,NNW,338,4.0,8.7,73,0.00,,---,0.00,VWS V14.01,2013-07-07 16:37:00,
2013-07-07 09:40:00,59.4,50.7,29.91,West,270,5.8,8.7,73,0.00,,---,0.00,VWS V14.01,2013-07-07 16:40:00,
2013-07-07 09:42:00,59.4,50.7,29.91,NNW,338,2.7,7.6,73,0.00,,---,0.00,VWS V14.01,2013-07-07 16:42:00,
2013-07-07 09:47:00,59.4,50.7,29.94,WNW,292,7.4,8.1,73,0.00,,---,0.00,VWS V14.01,2013-07-07 16:47:00,
2013-07-07 09:50:00,59.4,50.3,29.94,NW,315,5.8,12.5,72,0.00,,---,0.00,VWS V14.01,2013-07-07 16:50:00,
2013-07-07 09:52:00,59.4,50.3,29.94,NNW,338,3.8,7.4,72,0.00,,---,0.00,VWS V14.01,2013-07-07 16:52:00,
2013-07-07 09:57:00,59.4,50.3,29.94,NNW,338,5.4,7.4,72,0.00,,---,0.00,VWS V14.01,2013-07-07 16:57:00,
2013-07-07 10:00:00,59.2,50.2,29.94,NNW,338,7.6,7.6,72,0.00,,---,0.00,VWS V14.01,2013-07-07 17:00:00,
2013-07-07 10:02:00,59.0,49.6,29.91,WNW,292,4.3,7.6,71,0.00,,---,0.00,VWS V14.01,2013-07-07 17:02:00,
2013-07-07 10:07:00,59.0,50.0,29.91,WNW,292,6.9,7.6,72,0.00,,---,0.00,VWS V14.01,2013-07-07 17:07:00,
2013-07-07 10:10:00,59.0,50.0,29.91,NW,315,7.6,7.6,72,0.00,,---,0.00,VWS V14.01,2013-07-07 17:10:00,
2013-07-07 10:13:00,59.2,50.2,29.91,WNW,292,5.8,7.6,72,0.00,,---,0.00,VWS V14.01,2013-07-07 17:13:00,
2013-07-07 10:18:00,59.4,50.3,29.91,NNW,338,4.0,7.6,72,0.00,,---,0.00,VWS V14.01,2013-07-07 17:18:00,
2013-07-07 10:20:00,59.5,50.5,29.91,NNW,338,6.5,7.6,72,0.00,,---,0.00,VWS V14.01,2013-07-07 17:20:00,
2013-07-07 10:23:00,59.7,50.7,29.91,NNW,338,7.4,7.4,72,0.00,,---,0.00,VWS V14.01,2013-07-07 17:23:00,
2013-07-07 10:28:00,60.1,51.0,29.91,WNW,292,5.6,7.4,72,0.00,,---,0.00,VWS V14.01,2013-07-07 17:28:00,
2013-07-07 10:30:00,60.1,51.0,29.91,North,0,6.0,7.4,72,0.00,,---,0.00,VWS V14.01,2013-07-07 17:30:00,
2013-07-07 10:33:00,60.3,51.2,29.91,NNW,338,5.4,7.2,72,0.00,,---,0.00,VWS V14.01,2013-07-07 17:33:00,
2013-07-07 10:38:00,60.4,51.4,29.91,North,0,3.8,7.2,72,0.00,,---,0.00,VWS V14.01,2013-07-07 17:38:00,
2013-07-07 10:40:00,60.4,51.4,29.91,West,270,7.6,7.6,72,0.00,,---,0.00,VWS V14.01,2013-07-07 17:40:00,
2013-07-07 10:43:00,60.4,51.0,29.91,NNW,338,6.0,7.6,71,0.00,,---,0.00,VWS V14.01,2013-07-07 17:43:00,
2013-07-07 10:48:00,60.4,50.6,29.91,NNW,338,6.5,9.6,70,0.00,,---,0.00,VWS V14.01,2013-07-07 17:48:00,
2013-07-07 10:50:00,60.4,50.6,29.91,NNW,338,4.9,9.8,70,0.00,,---,0.00,VWS V14.01,2013-07-07 17:50:00,
2013-07-07 10:53:00,60.6,50.8,29.91,ENE,68,7.6,7.6,70,0.00,,---,0.00,VWS V14.01,2013-07-07 17:53:00,
2013-07-07 10:59:00,61.0,50.8,29.91,NNE,22,2.7,7.6,69,0.00,,---,0.00,VWS V14.01,2013-07-07 17:59:00,
2013-07-07 11:00:00,61.3,51.1,29.91,WNW,292,5.4,7.6,69,0.00,,---,0.00,VWS V14.01,2013-07-07 18:00:00,
2013-07-07 11:04:00,61.9,51.2,29.91,North,0,10.5,10.5,68,0.00,,---,0.00,VWS V14.01,2013-07-07 18:04:00,
2013-07-07 11:09:00,61.7,50.2,29.91,NNW,338,7.8,10.5,66,0.00,,---,0.00,VWS V14.01,2013-07-07 18:09:00,
2013-07-07 11:10:00,61.7,50.2,29.91,WNW,292,3.6,10.5,66,0.00,,---,0.00,VWS V14.01,2013-07-07 18:10:00,
2013-07-07 11:14:00,61.5,49.7,29.91,NNE,22,7.8,14.1,65,0.00,,---,0.00,VWS V14.01,2013-07-07 18:14:00,
2013-07-07 11:19:00,61.0,49.2,29.91,WNW,292,7.8,14.1,65,0.00,,---,0.00,VWS V14.01,2013-07-07 18:19:00,
2013-07-07 11:20:00,61.0,49.2,29.91,WNW,292,3.6,14.1,65,0.00,,---,0.00,VWS V14.01,2013-07-07 18:20:00,
2013-07-07 11:24:00,60.6,49.2,29.91,NW,315,8.5,8.5,66,0.00,,---,0.00,VWS V14.01,2013-07-07 18:24:00,
2013-07-07 11:29:00,60.3,48.5,29.91,NNW,338,3.8,9.8,65,0.00,,---,0.00,VWS V14.01,2013-07-07 18:29:00,
2013-07-07 11:30:00,60.3,48.9,29.91,WNW,292,5.8,9.8,66,0.00,,---,0.00,VWS V14.01,2013-07-07 18:30:00,
2013-07-07 11:34:00,60.4,49.0,29.91,WNW,292,4.0,7.4,66,0.00,,---,0.00,VWS V14.01,2013-07-07 18:34:00,
2013-07-07 11:39:00,61.0,50.0,29.91,ENE,68,6.3,7.4,67,0.00,,---,0.00,VWS V14.01,2013-07-07 18:39:00,
2013-07-07 11:40:00,61.0,50.0,29.91,WNW,292,3.1,3.1,67,0.00,,---,0.00,VWS V14.01,2013-07-07 18:40:00,
2013-07-07 11:45:00,61.9,50.8,29.91,WSW,248,5.8,10.1,67,0.00,,---,0.00,VWS V14.01,2013-07-07 18:45:00,
2013-07-07 11:50:00,61.9,50.0,29.91,NNW,338,7.8,7.8,65,0.00,,---,0.00,VWS V14.01,2013-07-07 18:50:00,
2013-07-07 11:55:00,61.7,49.8,29.91,NW,315,8.1,8.1,65,0.00,,---,0.00,VWS V14.01,2013-07-07 18:55:00,
2013-07-07 12:00:00,61.3,49.5,29.91,NNW,338,3.1,3.1,65,0.00,,---,0.00,VWS V14.01,2013-07-07 19:00:00,
2013-07-07 12:05:00,61.7,49.8,29.91,NNW,338,7.8,7.8,65,0.00,,---,0.00,VWS V14.01,2013-07-07 19:05:00,
2013-07-07 12:10:00,61.5,49.7,29.91,WNW,292,4.3,4.3,65,0.00,,---,0.00,VWS V14.01,2013-07-07 19:10:00,
2013-07-07 12:16:00,61.0,49.2,29.91,NNW,338,4.5,7.4,65,0.00,,---,0.00,VWS V14.01,2013-07-07 19:16:00,
2013-07-07 12:20:00,61.2,49.7,29.91,NW,315,9.4,9.4,66,0.00,,---,0.00,VWS V14.01,2013-07-07 19:20:00,
2013-07-07 12:21:00,61.0,49.2,29.91,WNW,292,6.0,9.4,65,0.00,,---,0.00,VWS V14.01,2013-07-07 19:21:00,
2013-07-07 12:26:00,60.6,49.2,29.91,WNW,292,10.3,10.3,66,0.00,,---,0.00,VWS V14.01,2013-07-07 19:26:00,
2013-07-07 12:30:00,60.6,49.6,29.91,North,0,4.9,10.3,67,0.00,,---,0.00,VWS V14.01,2013-07-07 19:30:00,
2013-07-07 12:31:00,60.6,49.6,29.91,NW,315,3.6,4.9,67,0.00,,---,0.00,VWS V14.01,2013-07-07 19:31:00,
2013-07-07 12:36:00,61.3,50.3,29.91,WNW,292,5.6,5.8,67,0.00,,---,0.00,VWS V14.01,2013-07-07 19:36:00,
2013-07-07 12:40:00,61.5,50.5,29.91,WNW,292,10.1,10.1,67,0.00,,---,0.00,VWS V14.01,2013-07-07 19:40:00,
2013-07-07 12:41:00,61.5,50.5,29.91,NNW,338,6.5,10.1,67,0.00,,---,0.00,VWS V14.01,2013-07-07 19:41:00,
2013-07-07 12:46:00,61.7,50.2,29.91,NW,315,7.6,10.1,66,0.00,,---,0.00,VWS V14.01,2013-07-07 19:46:00,
2013-07-07 12:50:00,61.3,49.5,29.91,WNW,292,9.6,12.1,65,0.00,,---,0.00,VWS V14.01,2013-07-07 19:50:00,
2013-07-07 12:51:00,60.8,48.6,29.91,WNW,292,11.2,11.2,64,0.00,,---,0.00,VWS V14.01,2013-07-07 19:51:00,
2013-07-07 12:56:00,60.4,49.4,29.91,NNW,338,7.2,11.2,67,0.00,,---,0.00,VWS V14.01,2013-07-07 19:56:00,
2013-07-07 13:00:00,60.4,49.4,29.91,NW,315,10.1,11.2,67,0.00,,---,0.00,VWS V14.01,2013-07-07 20:00:00,
2013-07-07 13:01:00,60.4,49.8,29.91,NW,315,6.5,10.1,68,0.00,,---,0.00,VWS V14.01,2013-07-07 20:01:00,
2013-07-07 13:07:00,60.4,49.8,29.91,WNW,292,4.9,10.1,68,0.00,,---,0.00,VWS V14.01,2013-07-07 20:07:00,
2013-07-07 13:10:00,60.3,49.7,29.91,WNW,292,7.8,10.1,68,0.00,,---,0.00,VWS V14.01,2013-07-07 20:10:00,
2013-07-07 13:12:00,60.3,50.1,29.91,WNW,292,6.5,7.8,69,0.00,,---,0.00,VWS V14.01,2013-07-07 20:12:00,
2013-07-07 13:17:00,60.4,50.2,29.91,WNW,292,8.1,10.5,69,0.00,,---,0.00,VWS V14.01,2013-07-07 20:17:00,
2013-07-07 13:20:00,60.3,50.1,29.91,WNW,292,7.4,10.5,69,0.00,,---,0.00,VWS V14.01,2013-07-07 20:20:00,
2013-07-07 13:22:00,60.3,50.1,29.91,WNW,292,7.8,7.8,69,0.00,,---,0.00,VWS V14.01,2013-07-07 20:22:00,
2013-07-07 13:27:00,60.3,50.5,29.91,NW,315,7.6,7.8,70,0.00,,---,0.00,VWS V14.01,2013-07-07 20:27:00,
2013-07-07 13:30:00,60.4,50.2,29.91,WNW,292,6.0,7.8,69,0.00,,---,0.00,VWS V14.01,2013-07-07 20:30:00,
2013-07-07 13:32:00,60.4,50.2,29.91,WNW,292,7.6,7.6,69,0.00,,---,0.00,VWS V14.01,2013-07-07 20:32:00,
2013-07-07 13:37:00,60.1,49.9,29.91,WNW,292,7.8,9.8,69,0.00,,---,0.00,VWS V14.01,2013-07-07 20:37:00,
2013-07-07 13:40:00,60.1,49.9,29.91,WNW,292,6.5,9.8,69,0.00,,---,0.00,VWS V14.01,2013-07-07 20:40:00,
2013-07-07 13:42:00,60.1,49.9,29.91,NNW,338,8.5,8.5,69,0.00,,---,0.00,VWS V14.01,2013-07-07 20:42:00,
2013-07-07 13:47:00,60.6,50.8,29.91,WNW,292,8.1,12.8,70,0.00,,---,0.00,VWS V14.01,2013-07-07 20:47:00,
2013-07-07 13:50:00,60.4,50.2,29.91,WNW,292,6.3,12.8,69,0.00,,---,0.00,VWS V14.01,2013-07-07 20:50:00,
2013-07-07 13:53:00,60.4,50.2,29.91,WNW,292,5.6,6.5,69,0.00,,---,0.00,VWS V14.01,2013-07-07 20:53:00,
2013-07-07 13:58:00,60.6,50.4,29.91,NNW,338,8.1,10.3,69,0.00,,---,0.00,VWS V14.01,2013-07-07 20:58:00,
2013-07-07 14:00:00,61.0,50.8,29.91,NW,315,7.4,10.3,69,0.00,,---,0.00,VWS V14.01,2013-07-07 21:00:00,
2013-07-07 14:03:00,60.8,50.6,29.91,NNW,338,5.6,10.1,69,0.00,,---,0.00,VWS V14.01,2013-07-07 21:03:00,
2013-07-07 14:08:00,60.6,50.4,29.91,NW,315,7.6,10.1,69,0.00,,---,0.00,VWS V14.01,2013-07-07 21:08:00,
2013-07-07 14:10:00,60.6,50.4,29.91,WNW,292,8.5,10.1,69,0.00,,---,0.00,VWS V14.01,2013-07-07 21:10:00,
2013-07-07 14:13:00,60.6,50.4,29.91,WNW,292,5.6,9.6,69,0.00,,---,0.00,VWS V14.01,2013-07-07 21:13:00,
2013-07-07 14:18:00,60.4,50.2,29.91,NNW,338,5.8,10.3,69,0.00,,---,0.00,VWS V14.01,2013-07-07 21:18:00,
2013-07-07 14:20:00,60.4,50.2,29.91,NNW,338,5.4,10.3,69,0.00,,---,0.00,VWS V14.01,2013-07-07 21:20:00,
2013-07-07 14:23:00,60.4,50.6,29.91,WNW,292,5.6,7.2,70,0.00,,---,0.00,VWS V14.01,2013-07-07 21:23:00,
2013-07-07 14:28:00,60.8,51.0,29.91,WNW,292,7.6,11.9,70,0.00,,---,0.00,VWS V14.01,2013-07-07 21:28:00,
2013-07-07 14:30:00,61.0,51.1,29.91,WNW,292,8.7,11.9,70,0.00,,---,0.00,VWS V14.01,2013-07-07 21:30:00,
2013-07-07 14:33:00,61.0,51.1,29.91,WNW,292,6.3,10.1,70,0.00,,---,0.00,VWS V14.01,2013-07-07 21:33:00,
2013-07-07 14:39:00,61.0,50.8,29.91,WNW,292,11.2,11.2,69,0.00,,---,0.00,VWS V14.01,2013-07-07 21:39:00,
2013-07-07 14:40:00,61.0,50.8,29.91,WNW,292,8.5,11.2,69,0.00,,---,0.00,VWS V14.01,2013-07-07 21:40:00,
2013-07-07 14:44:00,61.0,50.8,29.91,WNW,292,8.1,9.6,69,0.00,,---,0.00,VWS V14.01,2013-07-07 21:44:00,
2013-07-07 14:49:00,61.2,50.9,29.91,WNW,292,8.5,9.8,69,0.00,,---,0.00,VWS V14.01,2013-07-07 21:49:00,
2013-07-07 14:50:00,61.2,50.9,29.91,NNW,338,12.3,12.3,69,0.00,,---,0.00,VWS V14.01,2013-07-07 21:50:00,
2013-07-07 14:54:00,61.2,50.5,29.91,WNW,292,13.2,13.2,68,0.00,,---,0.00,VWS V14.01,2013-07-07 21:54:00,
2013-07-07 14:59:00,61.0,50.4,29.91,WNW,292,3.4,13.2,68,0.00,,---,0.00,VWS V14.01,2013-07-07 21:59:00,
2013-07-07 15:00:00,61.2,50.5,29.91,WSW,248,10.3,13.2,68,0.00,,---,0.00,VWS V14.01,2013-07-07 22:00:00,
2013-07-07 15:04:00,61.3,50.7,29.91,West,270,7.6,10.3,68,0.00,,---,0.00,VWS V14.01,2013-07-07 22:04:00,
2013-07-07 15:09:00,61.2,50.5,29.91,WNW,292,8.1,10.3,68,0.00,,---,0.00,VWS V14.01,2013-07-07 22:09:00,
2013-07-07 15:10:00,61.2,50.5,29.91,NW,315,8.5,10.3,68,0.00,,---,0.00,VWS V14.01,2013-07-07 22:10:00,
2013-07-07 15:14:00,61.3,50.7,29.91,NW,315,5.4,12.1,68,0.00,,---,0.00,VWS V14.01,2013-07-07 22:14:00,
2013-07-07 15:19:00,61.3,50.7,29.91,WNW,292,7.6,12.1,68,0.00,,---,0.00,VWS V14.01,2013-07-07 22:19:00,
2013-07-07 15:20:00,61.3,50.7,29.91,NW,315,7.2,12.1,68,0.00,,---,0.00,VWS V14.01,2013-07-07 22:20:00,
2013-07-07 15:25:00,61.7,51.4,29.91,East,90,6.3,8.7,69,0.00,,---,0.00,VWS V14.01,2013-07-07 22:25:00,
2013-07-07 15:30:00,61.7,51.0,29.91,NNW,338,9.2,9.6,68,0.00,,---,0.00,VWS V14.01,2013-07-07 22:30:00,
2013-07-07 15:35:00,61.7,51.0,29.91,NNW,338,5.8,10.5,68,0.00,,---,0.00,VWS V14.01,2013-07-07 22:35:00,
2013-07-07 15:40:00,61.5,50.5,29.91,WNW,292,6.5,10.5,67,0.00,,---,0.00,VWS V14.01,2013-07-07 22:40:00,
2013-07-07 15:45:00,61.7,51.0,29.91,NNW,338,9.2,9.2,68,0.00,,---,0.00,VWS V14.01,2013-07-07 22:45:00,
2013-07-07 15:50:00,61.7,50.6,29.91,NW,315,7.8,11.0,67,0.00,,---,0.00,VWS V14.01,2013-07-07 22:50:00,
2013-07-07 15:55:00,61.5,50.5,29.91,WNW,292,6.3,8.5,67,0.00,,---,0.00,VWS V14.01,2013-07-07 22:55:00,
2013-07-07 16:00:00,61.9,50.8,29.91,NNW,338,6.3,8.7,67,0.00,,---,0.00,VWS V14.01,2013-07-07 23:00:00,
2013-07-07 16:05:00,62.1,50.6,29.91,WNW,292,5.6,11.4,66,0.00,,---,0.00,VWS V14.01,2013-07-07 23:05:00,
2013-07-07 16:10:00,62.2,51.2,29.91,WNW,292,6.5,11.4,67,0.00,,---,0.00,VWS V14.01,2013-07-07 23:10:00,
2013-07-07 16:11:00,62.2,50.8,29.91,WNW,292,6.5,6.5,66,0.00,,---,0.00,VWS V14.01,2013-07-07 23:11:00,
2013-07-07 16:16:00,62.2,50.8,29.91,WNW,292,5.6,9.6,66,0.00,,---,0.00,VWS V14.01,2013-07-07 23:16:00,
2013-07-07 16:20:00,62.6,50.7,29.91,NNW,338,8.1,9.6,65,0.00,,---,0.00,VWS V14.01,2013-07-07 23:20:00,
2013-07-07 16:21:00,62.2,50.3,29.91,NNW,338,8.7,8.7,65,0.00,,---,0.00,VWS V14.01,2013-07-07 23:21:00,
2013-07-07 16:26:00,62.2,50.3,29.91,WNW,292,4.9,8.7,65,0.00,,---,0.00,VWS V14.01,2013-07-07 23:26:00,
2013-07-07 16:30:00,62.6,50.7,29.91,NW,315,4.0,8.7,65,0.00,,---,0.00,VWS V14.01,2013-07-07 23:30:00,
2013-07-07 16:31:00,62.6,50.7,29.91,NNW,338,2.9,4.0,65,0.00,,---,0.00,VWS V14.01,2013-07-07 23:31:00,
2013-07-07 16:36:00,63.0,50.6,29.91,WNW,292,5.4,7.6,64,0.00,,---,0.00,VWS V14.01,2013-07-07 23:36:00,
2013-07-07 16:40:00,62.6,50.3,29.91,NW,315,4.0,8.7,64,0.00,,---,0.00,VWS V14.01,2013-07-07 23:40:00,
2013-07-07 16:41:00,62.8,50.4,29.91,NNW,338,3.6,4.0,64,0.00,,---,0.00,VWS V14.01,2013-07-07 23:41:00,
2013-07-07 16:46:00,62.6,49.8,29.91,WNW,292,7.8,8.1,63,0.00,,---,0.00,VWS V14.01,2013-07-07 23:46:00,
2013-07-07 16:50:00,63.0,50.2,29.91,WNW,292,6.3,8.1,63,0.00,,---,0.00,VWS V14.01,2013-07-07 23:50:00,
2013-07-07 16:51:00,63.0,50.2,29.91,NNW,338,3.1,6.3,63,0.00,,---,0.00,VWS V14.01,2013-07-07 23:51:00,
2013-07-07 16:56:00,62.6,49.8,29.91,NNE,22,6.0,8.5,63,0.00,,---,0.00,VWS V14.01,2013-07-07 23:56:00,
2013-07-07 17:00:00,62.8,50.0,29.91,NNW,338,7.4,8.7,63,0.00,,---,0.00,VWS V14.01,2013-07-08 00:00:00,
2013-07-07 17:02:00,62.8,50.0,29.91,NNW,338,8.7,8.7,63,0.00,,---,0.00,VWS V14.01,2013-07-08 00:02:00,
2013-07-07 17:07:00,62.8,50.0,29.91,NNW,338,6.0,14.8,63,0.00,,---,0.00,VWS V14.01,2013-07-08 00:07:00,
2013-07-07 17:10:00,62.6,49.4,29.91,WNW,292,5.4,14.8,62,0.00,,---,0.00,VWS V14.01,2013-07-08 00:10:00,
2013-07-07 17:12:00,62.4,49.7,29.91,WNW,292,6.3,7.4,63,0.00,,---,0.00,VWS V14.01,2013-07-08 00:12:00,
2013-07-07 17:17:00,62.8,50.0,29.91,NNW,338,3.8,10.7,63,0.00,,---,0.00,VWS V14.01,2013-07-08 00:17:00,
2013-07-07 17:20:00,62.6,49.4,29.91,WNW,292,5.4,10.7,62,0.00,,---,0.00,VWS V14.01,2013-07-08 00:20:00,
2013-07-07 17:22:00,62.6,49.4,29.91,NW,315,8.7,8.7,62,0.00,,---,0.00,VWS V14.01,2013-07-08 00:22:00,
2013-07-07 17:27:00,62.2,49.5,29.91,North,0,4.0,8.7,63,0.00,,---,0.00,VWS V14.01,2013-07-08 00:27:00,
2013-07-07 17:30:00,62.4,49.7,29.91,WNW,292,5.8,9.8,63,0.00,,---,0.00,VWS V14.01,2013-07-08 00:30:00,
2013-07-07 17:32:00,62.2,49.5,29.91,WNW,292,7.6,9.8,63,0.00,,---,0.00,VWS V14.01,2013-07-08 00:32:00,
2013-07-07 17:37:00,62.8,50.0,29.91,WNW,292,8.1,9.8,63,0.00,,---,0.00,VWS V14.01,2013-07-08 00:37:00,
2013-07-07 17:40:00,62.8,50.0,29.91,WNW,292,3.6,9.8,63,0.00,,---,0.00,VWS V14.01,2013-07-08 00:40:00,
2013-07-07 17:42:00,63.0,50.2,29.91,WNW,292,5.4,5.4,63,0.00,,---,0.00,VWS V14.01,2013-07-08 00:42:00,
2013-07-07 17:47:00,63.1,50.3,29.91,WNW,292,3.8,8.5,63,0.00,,---,0.00,VWS V14.01,2013-07-08 00:47:00,
2013-07-07 17:50:00,63.1,50.3,29.91,NW,315,7.4,8.5,63,0.00,,---,0.00,VWS V14.01,2013-07-08 00:50:00,
2013-07-07 17:53:00,63.3,50.1,29.91,WNW,292,5.8,7.4,62,0.00,,---,0.00,VWS V14.01,2013-07-08 00:53:00,
2013-07-07 17:58:00,63.3,50.1,29.91,NNW,338,4.7,7.4,62,0.00,,---,0.00,VWS V14.01,2013-07-08 00:58:00,
2013-07-07 18:00:00,63.5,50.3,29.91,WNW,292,6.5,7.4,62,0.00,,---,0.00,VWS V14.01,2013-07-08 01:00:00,
2013-07-07 18:03:00,63.5,49.8,29.91,NNW,338,6.5,6.5,61,0.00,,---,0.00,VWS V14.01,2013-07-08 01:03:00,
2013-07-07 18:08:00,64.0,50.3,29.91,NNW,338,5.6,7.6,61,0.00,,---,0.00,VWS V14.01,2013-07-08 01:08:00,
2013-07-07 18:10:00,64.2,50.5,29.91,WNW,292,3.8,7.6,61,0.00,,---,0.00,VWS V14.01,2013-07-08 01:10:00,
2013-07-07 18:13:00,64.2,50.1,29.91,WNW,292,7.4,7.4,60,0.00,,---,0.00,VWS V14.01,2013-07-08 01:13:00,
2013-07-07 18:18:00,64.6,50.0,29.88,WNW,292,5.6,7.8,59,0.00,,---,0.00,VWS V14.01,2013-07-08 01:18:00,
2013-07-07 18:20:00,64.4,48.8,29.88,WNW,292,4.9,7.8,57,0.00,,---,0.00,VWS V14.01,2013-07-08 01:20:00,
2013-07-07 18:23:00,64.4,48.8,29.88,NNW,338,8.7,8.7,57,0.00,,---,0.00,VWS V14.01,2013-07-08 01:23:00,
2013-07-07 18:28:00,64.6,48.5,29.88,WNW,292,10.1,10.1,56,0.00,,---,0.00,VWS V14.01,2013-07-08 01:28:00,
2013-07-07 18:30:00,64.6,48.5,29.88,WNW,292,6.0,10.1,56,0.00,,---,0.00,VWS V14.01,2013-07-08 01:30:00,
2013-07-07 18:33:00,64.2,48.7,29.91,WNW,292,6.0,6.0,57,0.00,,---,0.00,VWS V14.01,2013-07-08 01:33:00,
2013-07-07 18:38:00,64.2,49.2,29.91,NNW,338,2.9,6.3,58,0.00,,---,0.00,VWS V14.01,2013-07-08 01:38:00,
2013-07-07 18:40:00,64.2,49.2,29.91,NW,315,5.6,6.3,58,0.00,,---,0.00,VWS V14.01,2013-07-08 01:40:00,
2013-07-07 18:44:00,64.0,49.0,29.91,WNW,292,5.8,7.4,58,0.00,,---,0.00,VWS V14.01,2013-07-08 01:44:00,
2013-07-07 18:49:00,63.9,49.3,29.88,WNW,292,2.0,7.6,59,0.00,,---,0.00,VWS V14.01,2013-07-08 01:49:00,
2013-07-07 18:50:00,63.5,48.9,29.88,NNW,338,6.5,7.6,59,0.00,,---,0.00,VWS V14.01,2013-07-08 01:50:00,
2013-07-07 18:54:00,63.1,49.0,29.88,NNW,338,2.7,7.6,60,0.00,,---,0.00,VWS V14.01,2013-07-08 01:54:00,
2013-07-07 18:59:00,62.4,48.8,29.88,West,270,4.3,7.6,61,0.00,,---,0.00,VWS V14.01,2013-07-08 01:59:00,
2013-07-07 19:00:00,62.4,48.8,29.88,WNW,292,6.3,7.6,61,0.00,,---,0.00,VWS V14.01,2013-07-08 02:00:00,
2013-07-07 19:04:00,62.1,48.9,29.88,NNW,338,5.6,6.3,62,0.00,,---,0.00,VWS V14.01,2013-07-08 02:04:00,
2013-07-07 19:09:00,61.5,49.2,29.88,WNW,292,3.4,8.7,64,0.00,,---,0.00,VWS V14.01,2013-07-08 02:09:00,
2013-07-07 19:10:00,61.5,49.2,29.88,WNW,292,4.0,8.7,64,0.00,,---,0.00,VWS V14.01,2013-07-08 02:10:00,
2013-07-07 19:15:00,61.3,49.5,29.88,NNW,338,4.0,6.3,65,0.00,,---,0.00,VWS V14.01,2013-07-08 02:15:00,
2013-07-07 19:20:00,62.6,50.3,29.91,NNW,338,5.6,7.8,64,0.00,,---,0.00,VWS V14.01,2013-07-08 02:20:00,
2013-07-07 19:25:00,63.0,50.2,29.91,NNW,338,7.4,7.4,63,0.00,,---,0.00,VWS V14.01,2013-07-08 02:25:00,
2013-07-07 19:30:00,63.0,49.8,29.91,NW,315,5.8,7.2,62,0.00,,---,0.00,VWS V14.01,2013-07-08 02:30:00,
2013-07-07 19:35:00,62.4,49.2,29.91,NNW,338,3.6,7.2,62,0.00,,---,0.00,VWS V14.01,2013-07-08 02:35:00,
2013-07-07 19:40:00,61.7,48.1,29.91,North,0,6.0,6.0,61,0.00,,---,0.00,VWS V14.01,2013-07-08 02:40:00,
2013-07-07 19:45:00,61.2,48.0,29.91,NNW,338,4.3,7.4,62,0.00,,---,0.00,VWS V14.01,2013-07-08 02:45:00,
2013-07-07 19:50:00,60.4,48.2,29.91,WNW,292,7.2,7.2,64,0.00,,---,0.00,VWS V14.01,2013-07-08 02:50:00,
2013-07-07 19:56:00,60.3,48.0,29.91,WNW,292,4.3,7.2,64,0.00,,---,0.00,VWS V14.01,2013-07-08 02:56:00,
2013-07-07 20:00:00,59.7,48.0,29.91,North,0,6.0,7.2,65,0.00,,---,0.00,VWS V14.01,2013-07-08 03:00:00,
2013-07-07 20:01:00,59.5,48.2,29.91,NNW,338,3.1,6.0,66,0.00,,---,0.00,VWS V14.01,2013-07-08 03:01:00,
2013-07-07 20:06:00,59.4,48.0,29.91,NW,315,7.4,9.6,66,0.00,,---,0.00,VWS V14.01,2013-07-08 03:06:00,
2013-07-07 20:10:00,59.2,48.2,29.91,NNW,338,7.2,9.6,67,0.00,,---,0.00,VWS V14.01,2013-07-08 03:10:00,
2013-07-07 20:11:00,59.0,48.1,29.91,NNW,338,4.3,7.2,67,0.00,,---,0.00,VWS V14.01,2013-07-08 03:11:00,
2013-07-07 20:16:00,58.5,48.3,29.91,WNW,292,5.8,7.2,69,0.00,,---,0.00,VWS V14.01,2013-07-08 03:16:00,
2013-07-07 20:20:00,58.5,48.3,29.91,WNW,292,5.4,7.2,69,0.00,,---,0.00,VWS V14.01,2013-07-08 03:20:00,
2013-07-07 20:21:00,58.3,48.5,29.91,NW,315,3.4,5.4,70,0.00,,---,0.00,VWS V14.01,2013-07-08 03:21:00,
2013-07-07 20:26:00,58.1,48.4,29.91,WNW,292,7.4,7.4,70,0.00,,---,0.00,VWS V14.01,2013-07-08 03:26:00,
2013-07-07 20:30:00,58.1,48.8,29.91,NNW,338,3.6,7.4,71,0.00,,---,0.00,VWS V14.01,2013-07-08 03:30:00,
2013-07-07 20:31:00,57.9,48.6,29.91,North,0,3.6,3.6,71,0.00,,---,0.00,VWS V14.01,2013-07-08 03:31:00,
2013-07-07 20:36:00,57.9,49.0,29.91,NNW,338,4.3,6.0,72,0.00,,---,0.00,VWS V14.01,2013-07-08 03:36:00,
2013-07-07 20:40:00,57.7,48.8,29.91,WNW,292,4.9,6.3,72,0.00,,---,0.00,VWS V14.01,2013-07-08 03:40:00,
2013-07-07 20:42:00,57.7,48.8,29.91,WNW,292,6.3,6.3,72,0.00,,---,0.00,VWS V14.01,2013-07-08 03:42:00,
2013-07-07 20:47:00,57.7,49.2,29.91,NNW,338,4.9,6.3,73,0.00,,---,0.00,VWS V14.01,2013-07-08 03:47:00,
2013-07-07 20:50:00,57.7,49.2,29.91,North,0,7.8,7.8,73,0.00,,---,0.00,VWS V14.01,2013-07-08 03:50:00,
2013-07-07 20:55:00,57.6,49.3,29.91,NNW,338,4.9,7.8,74,0.00,,---,0.00,VWS V14.01,2013-07-08 03:55:00,
2013-07-07 21:00:00,57.6,49.3,29.91,NNW,338,7.4,7.4,74,0.00,,---,0.00,VWS V14.01,2013-07-08 04:00:00,
2013-07-07 21:01:00,57.6,49.3,29.91,NNW,338,7.4,7.4,74,0.00,,---,0.00,VWS V14.01,2013-07-08 04:01:00,
2013-07-07 21:02:00,57.6,49.3,29.91,North,0,2.9,7.4,74,0.00,,---,0.00,VWS V14.01,2013-07-08 04:02:00,
2013-07-07 21:05:00,57.6,49.3,29.91,NNW,338,5.6,7.4,74,0.00,,---,0.00,VWS V14.01,2013-07-08 04:05:00,
2013-07-07 21:10:00,57.4,49.2,29.91,WNW,292,2.5,8.1,74,0.00,,---,0.00,VWS V14.01,2013-07-08 04:10:00,
2013-07-07 21:11:00,57.4,49.2,29.91,West,270,2.7,2.7,74,0.00,,---,0.00,VWS V14.01,2013-07-08 04:11:00,
2013-07-07 21:16:00,57.2,49.4,29.91,WNW,292,3.6,5.4,75,0.00,,---,0.00,VWS V14.01,2013-07-08 04:16:00,
2013-07-07 21:20:00,57.2,49.4,29.91,WNW,292,1.6,6.0,75,0.00,,---,0.00,VWS V14.01,2013-07-08 04:20:00,
2013-07-07 21:21:00,57.2,49.4,29.91,WNW,292,3.1,3.1,75,0.00,,---,0.00,VWS V14.01,2013-07-08 04:21:00,
2013-07-07 21:26:00,57.2,49.4,29.91,WNW,292,0.9,5.6,75,0.00,,---,0.00,VWS V14.01,2013-07-08 04:26:00,
2013-07-07 21:30:00,57.2,49.4,29.91,North,0,3.4,5.6,75,0.00,,---,0.00,VWS V14.01,2013-07-08 04:30:00,
2013-07-07 21:31:00,57.2,49.4,29.94,NNW,338,5.8,5.8,75,0.00,,---,0.00,VWS V14.01,2013-07-08 04:31:00,
2013-07-07 21:36:00,57.0,49.5,29.94,NNW,338,3.6,5.8,76,0.00,,---,0.00,VWS V14.01,2013-07-08 04:36:00,
2013-07-07 21:40:00,57.0,49.5,29.94,WNW,292,4.3,7.2,76,0.00,,---,0.00,VWS V14.01,2013-07-08 04:40:00,
2013-07-07 21:41:00,57.0,49.5,29.94,North,0,3.8,4.3,76,0.00,,---,0.00,VWS V14.01,2013-07-08 04:41:00,
2013-07-07 21:46:00,56.8,49.7,29.94,NNW,338,6.0,6.5,77,0.00,,---,0.00,VWS V14.01,2013-07-08 04:46:00,
2013-07-07 21:50:00,56.8,49.7,29.94,NNW,338,2.7,6.5,77,0.00,,---,0.00,VWS V14.01,2013-07-08 04:50:00,
2013-07-07 21:52:00,56.8,49.7,29.94,NNW,338,3.8,3.8,77,0.00,,---,0.00,VWS V14.01,2013-07-08 04:52:00,
2013-07-07 21:57:00,56.8,49.7,29.94,NW,315,6.0,6.0,77,0.00,,---,0.00,VWS V14.01,2013-07-08 04:57:00,
2013-07-07 22:00:00,56.8,49.7,29.94,NW,315,2.7,6.0,77,0.00,,---,0.00,VWS V14.01,2013-07-08 05:00:00,
2013-07-07 22:02:00,56.8,49.7,29.94,NW,315,2.7,2.7,77,0.00,,---,0.00,VWS V14.01,2013-07-08 05:02:00,
2013-07-07 22:07:00,56.8,49.7,29.94,NW,315,4.7,4.7,77,0.00,,---,0.00,VWS V14.01,2013-07-08 05:07:00,
2013-07-07 22:10:00,56.8,49.7,29.94,WNW,292,2.5,4.7,77,0.00,,---,0.00,VWS V14.01,2013-07-08 05:10:00,
2013-07-07 22:12:00,56.8,49.7,29.94,WNW,292,2.9,2.9,77,0.00,,---,0.00,VWS V14.01,2013-07-08 05:12:00,
2013-07-07 22:17:00,56.8,49.7,29.94,WNW,292,4.3,4.3,77,0.00,,---,0.00,VWS V14.01,2013-07-08 05:17:00,
2013-07-07 22:20:00,56.7,49.5,29.94,NNW,338,6.3,6.3,77,0.00,,---,0.00,VWS V14.01,2013-07-08 05:20:00,
2013-07-07 22:22:00,56.7,49.5,29.94,NNW,338,3.4,6.3,77,0.00,,---,0.00,VWS V14.01,2013-07-08 05:22:00,
2013-07-07 22:27:00,56.7,49.5,29.94,NNE,22,2.0,6.3,77,0.00,,---,0.00,VWS V14.01,2013-07-08 05:27:00,
2013-07-07 22:30:00,56.7,49.5,29.94,WNW,292,2.9,6.3,77,0.00,,---,0.00,VWS V14.01,2013-07-08 05:30:00,
2013-07-07 22:32:00,56.5,49.4,29.94,NW,315,2.5,2.9,77,0.00,,---,0.00,VWS V14.01,2013-07-08 05:32:00,
2013-07-07 22:37:00,56.5,49.4,29.94,WNW,292,2.5,4.0,77,0.00,,---,0.00,VWS V14.01,2013-07-08 05:37:00,
2013-07-07 22:40:00,56.5,49.4,29.94,NNW,338,2.5,4.0,77,0.00,,---,0.00,VWS V14.01,2013-07-08 05:40:00,
2013-07-07 22:43:00,56.5,49.7,29.94,NNW,338,3.4,4.7,78,0.00,,---,0.00,VWS V14.01,2013-07-08 05:43:00,
2013-07-07 22:48:00,56.5,49.7,29.94,WNW,292,3.6,6.3,78,0.00,,---,0.00,VWS V14.01,2013-07-08 05:48:00,
2013-07-07 22:50:00,56.5,49.7,29.94,NNW,338,2.2,6.3,78,0.00,,---,0.00,VWS V14.01,2013-07-08 05:50:00,
2013-07-07 22:53:00,56.5,49.7,29.94,NNE,22,2.2,4.3,78,0.00,,---,0.00,VWS V14.01,2013-07-08 05:53:00,
2013-07-07 22:58:00,56.5,49.7,29.94,NNW,338,2.0,4.3,78,0.00,,---,0.00,VWS V14.01,2013-07-08 05:58:00,
2013-07-07 23:00:00,56.5,49.7,29.94,NW,315,3.6,4.3,78,0.00,,---,0.00,VWS V14.01,2013-07-08 06:00:00,
2013-07-07 23:03:00,56.5,49.7,29.94,North,0,2.7,5.4,78,0.00,,---,0.00,VWS V14.01,2013-07-08 06:03:00,
2013-07-07 23:08:00,56.5,49.7,29.94,WNW,292,2.5,5.4,78,0.00,,---,0.00,VWS V14.01,2013-07-08 06:08:00,
2013-07-07 23:10:00,56.5,49.7,29.94,NNE,22,2.2,5.8,78,0.00,,---,0.00,VWS V14.01,2013-07-08 06:10:00,
2013-07-07 23:13:00,56.5,49.7,29.94,NW,315,1.6,2.9,78,0.00,,---,0.00,VWS V14.01,2013-07-08 06:13:00,
2013-07-07 23:18:00,56.5,49.7,29.94,NNW,338,2.2,4.3,78,0.00,,---,0.00,VWS V14.01,2013-07-08 06:18:00,
2013-07-07 23:20:00,56.5,49.7,29.94,WNW,292,2.0,4.3,78,0.00,,---,0.00,VWS V14.01,2013-07-08 06:20:00,
2013-07-07 23:23:00,56.5,49.7,29.94,SSE,158,1.6,3.6,78,0.00,,---,0.00,VWS V14.01,2013-07-08 06:23:00,
2013-07-07 23:28:00,56.5,50.1,29.94,NNW,338,2.0,4.3,79,0.00,,---,0.00,VWS V14.01,2013-07-08 06:28:00,
2013-07-07 23:30:00,56.5,50.1,29.94,NW,315,1.1,4.3,79,0.00,,---,0.00,VWS V14.01,2013-07-08 06:30:00,
2013-07-07 23:33:00,56.3,49.9,29.97,NNW,338,3.1,3.4,79,0.00,,---,0.00,VWS V14.01,2013-07-08 06:33:00,
2013-07-07 23:39:00,56.5,50.1,29.97,WNW,292,2.7,4.5,79,0.00,,---,0.00,VWS V14.01,2013-07-08 06:39:00,
2013-07-07 23:40:00,56.5,50.1,29.97,WNW,292,4.7,4.7,79,0.00,,---,0.00,VWS V14.01,2013-07-08 06:40:00,
2013-07-07 23:44:00,56.3,49.9,29.97,NNW,338,2.9,5.6,79,0.00,,---,0.00,VWS V14.01,2013-07-08 06:44:00,
2013-07-07 23:49:00,56.3,49.9,29.97,NNE,22,2.2,6.5,79,0.00,,---,0.00,VWS V14.01,2013-07-08 06:49:00,
2013-07-07 23:50:00,56.3,49.9,29.97,NW,315,4.0,6.5,79,0.00,,---,0.00,VWS V14.01,2013-07-08 06:50:00,
2013-07-07 23:54:00,56.3,49.9,29.97,NNE,22,1.6,4.3,79,0.00,,---,0.00,VWS V14.01,2013-07-08 06:54:00,
2013-07-07 23:59:00,56.3,50.2,29.97,WNW,292,4.0,4.3,80,0.00,,---,0.00,VWS V14.01,2013-07-08 06:59:00,